createdAt,value
2016-05-21T00:00:00.870Z,0
2016-05-21T00:01:00.982Z,0
2016-05-21T00:02:00.953Z,0
2016-05-21T00:03:00.925Z,0
2016-05-21T00:04:00.897Z,0
2016-05-21T00:05:00.883Z,0
2016-05-21T00:06:00.839Z,0
2016-05-21T00:07:00.779Z,0
2016-05-21T00:08:00.751Z,0
2016-05-21T00:09:00.707Z,0
2016-05-21T00:10:00.522Z,0
2016-05-21T00:11:00.633Z,0
2016-05-21T00:12:00.602Z,0
2016-05-21T00:13:00.605Z,0
2016-05-21T00:14:00.576Z,0
2016-05-21T00:15:00.578Z,0
2016-05-21T00:16:00.551Z,0
2016-05-21T00:17:00.218Z,0
2016-05-21T00:18:00.476Z,0
2016-05-21T00:19:00.454Z,0
2016-05-21T00:20:00.446Z,0
2016-05-21T00:21:00.251Z,0
2016-05-21T00:22:00.382Z,0
2016-05-21T00:23:00.341Z,0
2016-05-21T00:24:00.157Z,0
2016-05-21T00:25:00.132Z,0
2016-05-21T00:26:00.761Z,0
2016-05-21T00:27:00.203Z,0
2016-05-21T00:28:00.175Z,0
2016-05-21T00:28:59.975Z,0
2016-05-21T00:30:00.103Z,0
2016-05-21T00:31:00.091Z,0
2016-05-21T00:32:00.032Z,0
2016-05-21T00:33:00.004Z,0
2016-05-21T00:33:59.975Z,0
2016-05-21T00:34:59.946Z,0
2016-05-21T00:35:59.903Z,0
2016-05-21T00:36:59.873Z,0
2016-05-21T00:37:59.861Z,0
2016-05-21T00:38:59.817Z,0
2016-05-21T00:39:59.772Z,0
2016-05-21T00:40:59.587Z,0
2016-05-21T00:41:59.700Z,0
2016-05-21T00:42:59.874Z,0
2016-05-21T00:43:59.314Z,0
2016-05-21T00:44:59.582Z,0
2016-05-21T00:45:59.555Z,0
2016-05-21T00:46:59.526Z,0
2016-05-21T00:47:59.497Z,0
2016-05-21T00:48:59.453Z,0
2016-05-21T00:49:59.424Z,0
2016-05-21T00:50:59.411Z,0
2016-05-21T00:51:59.352Z,0
2016-05-21T00:52:59.354Z,0
2016-05-21T00:53:59.279Z,0
2016-05-21T00:54:59.249Z,0
2016-05-21T00:55:59.487Z,0
2016-05-21T00:56:59.177Z,0
2016-05-21T00:57:59.132Z,0
2016-05-21T00:58:59.120Z,0
2016-05-21T00:59:59.076Z,0
2016-05-21T01:00:59.048Z,0
2016-05-21T01:01:59.004Z,0
2016-05-21T01:02:58.818Z,0
2016-05-21T01:03:58.931Z,0
2016-05-21T01:04:58.746Z,0
2016-05-21T01:05:58.858Z,0
2016-05-21T01:06:58.845Z,0
2016-05-21T01:07:58.848Z,0
2016-05-21T01:08:58.616Z,0
2016-05-21T01:09:58.431Z,0
2016-05-21T01:10:58.542Z,0
2016-05-21T01:11:58.655Z,0
2016-05-21T01:12:58.642Z,0
2016-05-21T01:13:58.582Z,0
2016-05-21T01:14:58.554Z,0
2016-05-21T01:15:58.510Z,0
2016-05-21T01:16:58.497Z,0
2016-05-21T01:17:58.453Z,0
2016-05-21T01:18:58.408Z,0
2016-05-21T01:19:58.380Z,0
2016-05-21T01:20:58.399Z,0
2016-05-21T01:21:58.307Z,0
2016-05-21T01:22:58.279Z,0
2016-05-21T01:23:58.235Z,0
2016-05-21T01:24:58.205Z,0
2016-05-21T01:25:58.099Z,0
2016-05-21T01:26:58.148Z,0
2016-05-21T01:27:58.135Z,0
2016-05-21T01:28:58.060Z,0
2016-05-21T01:29:58.032Z,0
2016-05-21T01:30:58.004Z,0
2016-05-21T01:31:57.959Z,0
2016-05-21T01:32:57.946Z,0
2016-05-21T01:33:57.887Z,0
2016-05-21T01:34:57.701Z,0
2016-05-21T01:35:57.814Z,0
2016-05-21T01:36:57.785Z,0
2016-05-21T01:37:57.740Z,0
2016-05-21T01:38:57.775Z,0
2016-05-21T01:39:57.684Z,0
2016-05-21T01:40:58.202Z,0
2016-05-21T01:41:57.345Z,0
2016-05-21T01:42:57.583Z,0
2016-05-21T01:43:57.539Z,0
2016-05-21T01:44:57.510Z,0
2016-05-21T01:45:57.481Z,0
2016-05-21T01:46:57.437Z,0
2016-05-21T01:47:57.252Z,0
2016-05-21T01:48:57.364Z,0
2016-05-21T01:49:57.336Z,0
2016-05-21T01:50:57.354Z,0
2016-05-21T01:51:58.200Z,0
2016-05-21T01:52:57.234Z,0
2016-05-21T01:53:57.190Z,0
2016-05-21T01:54:57.161Z,0
2016-05-21T01:55:56.961Z,0
2016-05-21T01:56:57.089Z,0
2016-05-21T01:57:56.904Z,0
2016-05-21T01:59:11.144Z,0
2016-05-21T01:59:56.972Z,0
2016-05-21T02:00:56.943Z,0
2016-05-21T02:01:56.915Z,0
2016-05-21T02:02:56.901Z,0
2016-05-21T02:03:56.842Z,0
2016-05-21T02:04:56.813Z,0
2016-05-21T02:05:56.784Z,0
2016-05-21T02:06:56.756Z,0
2016-05-21T02:07:56.712Z,0
2016-05-21T02:08:56.667Z,0
2016-05-21T02:09:56.639Z,0
2016-05-21T02:10:56.314Z,0
2016-05-21T02:11:56.551Z,0
2016-05-21T02:12:56.523Z,0
2016-05-21T02:13:56.478Z,0
2016-05-21T02:14:56.450Z,0
2016-05-21T02:15:56.422Z,0
2016-05-21T02:16:56.377Z,0
2016-05-21T02:17:56.380Z,0
2016-05-21T02:18:56.319Z,0
2016-05-21T02:19:56.275Z,0
2016-05-21T02:20:56.231Z,0
2016-05-21T02:21:56.203Z,0
2016-05-21T02:22:56.174Z,0
2016-05-21T02:23:56.146Z,0
2016-05-21T02:24:56.149Z,0
2016-05-21T02:25:56.558Z,0
2016-05-21T02:26:55.888Z,0
2016-05-21T02:27:56.015Z,0
2016-05-21T02:28:55.957Z,0
2016-05-21T02:29:55.927Z,0
2016-05-21T02:30:55.883Z,0
2016-05-21T02:31:55.699Z,0
2016-05-21T02:32:55.810Z,0
2016-05-21T02:33:55.782Z,0
2016-05-21T02:34:55.425Z,0
2016-05-21T02:35:55.710Z,0
2016-05-21T02:36:55.680Z,0
2016-05-21T02:37:55.668Z,0
2016-05-21T02:38:55.484Z,0
2016-05-21T02:39:55.564Z,0
2016-05-21T02:40:55.535Z,0
2016-05-21T02:41:55.522Z,0
2016-05-21T02:42:55.462Z,0
2016-05-21T02:43:55.434Z,0
2016-05-21T02:44:55.233Z,0
2016-05-21T02:45:55.205Z,0
2016-05-21T02:46:55.316Z,0
2016-05-21T02:47:55.288Z,0
2016-05-21T02:48:55.260Z,0
2016-05-21T02:49:55.216Z,0
2016-05-21T02:50:55.187Z,0
2016-05-21T02:51:55.158Z,0
2016-05-21T02:52:55.114Z,0
2016-05-21T02:53:55.086Z,0
2016-05-21T02:54:55.635Z,0
2016-05-21T02:55:54.857Z,0
2016-05-21T02:56:55.032Z,0
2016-05-21T02:57:54.924Z,0
2016-05-21T02:58:54.896Z,0
2016-05-21T02:59:54.868Z,0
2016-05-21T03:00:54.824Z,4
2016-05-21T03:01:54.623Z,4
2016-05-21T03:02:54.750Z,0
2016-05-21T03:03:54.738Z,0
2016-05-21T03:04:54.678Z,4
2016-05-21T03:05:54.493Z,4
2016-05-21T03:06:54.604Z,4
2016-05-21T03:07:54.576Z,4
2016-05-21T03:08:54.532Z,8
2016-05-21T03:09:54.504Z,4
2016-05-21T03:10:54.459Z,4
2016-05-21T03:11:54.447Z,8
2016-05-21T03:12:54.403Z,12
2016-05-21T03:13:54.358Z,12
2016-05-21T03:14:54.330Z,12
2016-05-21T03:15:54.301Z,16
2016-05-21T03:16:54.241Z,16
2016-05-21T03:17:54.228Z,20
2016-05-21T03:18:54.200Z,24
2016-05-21T03:19:54.139Z,28
2016-05-21T03:20:54.112Z,32
2016-05-21T03:21:54.067Z,36
2016-05-21T03:22:54.055Z,40
2016-05-21T03:23:54.026Z,48
2016-05-21T03:24:53.966Z,52
2016-05-21T03:25:53.906Z,60
2016-05-21T03:26:53.783Z,68
2016-05-21T03:27:53.709Z,80
2016-05-21T03:28:53.821Z,92
2016-05-21T03:29:53.791Z,104
2016-05-21T03:30:53.982Z,116
2016-05-21T03:31:53.719Z,128
2016-05-21T03:32:53.674Z,140
2016-05-21T03:33:53.662Z,152
2016-05-21T03:34:53.618Z,168
2016-05-21T03:35:53.590Z,188
2016-05-21T03:36:53.560Z,212
2016-05-21T03:37:53.501Z,240
2016-05-21T03:38:53.473Z,260
2016-05-21T03:39:53.428Z,288
2016-05-21T03:40:53.509Z,316
2016-05-21T03:41:53.387Z,348
2016-05-21T03:42:53.186Z,384
2016-05-21T03:43:53.298Z,424
2016-05-21T03:44:53.114Z,468
2016-05-21T03:45:53.069Z,512
2016-05-21T03:46:53.197Z,560
2016-05-21T03:47:52.981Z,616
2016-05-21T03:48:53.125Z,668
2016-05-21T03:49:53.080Z,728
2016-05-21T03:50:53.036Z,784
2016-05-21T03:51:53.008Z,840
2016-05-21T03:52:52.978Z,892
2016-05-21T03:53:52.778Z,948
2016-05-21T03:54:52.906Z,1012
2016-05-21T03:55:52.721Z,1080
2016-05-21T03:56:53.068Z,1160
2016-05-21T03:57:52.805Z,1236
2016-05-21T03:58:52.605Z,1308
2016-05-21T03:59:52.560Z,1384
2016-05-21T04:00:52.688Z,1472
2016-05-21T04:01:52.659Z,1560
2016-05-21T04:02:52.459Z,1648
2016-05-21T04:03:52.430Z,1728
2016-05-21T04:04:52.543Z,1812
2016-05-21T04:05:52.513Z,1964
2016-05-21T04:06:52.485Z,2168
2016-05-21T04:07:52.473Z,2292
2016-05-21T04:08:52.412Z,2360
2016-05-21T04:09:52.368Z,2468
2016-05-21T04:10:52.324Z,2576
2016-05-21T04:11:52.467Z,2624
2016-05-21T04:12:52.282Z,2616
2016-05-21T04:13:52.239Z,2612
2016-05-21T04:14:52.038Z,2664
2016-05-21T04:15:52.010Z,2728
2016-05-21T04:16:52.137Z,2800
2016-05-21T04:17:52.093Z,2892
2016-05-21T04:18:52.048Z,2972
2016-05-21T04:19:52.020Z,3048
2016-05-21T04:20:51.992Z,3124
2016-05-21T04:21:51.964Z,3224
2016-05-21T04:22:51.919Z,3336
2016-05-21T04:23:51.891Z,3440
2016-05-21T04:24:51.846Z,3500
2016-05-21T04:25:51.818Z,3580
2016-05-21T04:26:52.507Z,3692
2016-05-21T04:27:51.744Z,3812
2016-05-21T04:28:51.716Z,3936
2016-05-21T04:29:51.672Z,4060
2016-05-21T04:30:51.628Z,4196
2016-05-21T04:31:51.599Z,4336
2016-05-21T04:32:51.571Z,4476
2016-05-21T04:33:51.526Z,4680
2016-05-21T04:34:51.498Z,4904
2016-05-21T04:35:51.454Z,5140
2016-05-21T04:36:51.425Z,5528
2016-05-21T04:37:51.397Z,6472
2016-05-21T04:38:51.368Z,7160
2016-05-21T04:39:51.324Z,6980
2016-05-21T04:40:51.296Z,7464
2016-05-21T04:41:51.267Z,8132
2016-05-21T04:42:51.223Z,8468
2016-05-21T04:43:51.194Z,8892
2016-05-21T04:44:51.150Z,9548
2016-05-21T04:45:51.121Z,9636
2016-05-21T04:46:51.093Z,9580
2016-05-21T04:47:51.080Z,9468
2016-05-21T04:48:51.020Z,9404
2016-05-21T04:49:51.007Z,9224
2016-05-21T04:50:50.948Z,9108
2016-05-21T04:51:50.919Z,9044
2016-05-21T04:52:51.125Z,9232
2016-05-21T04:53:50.861Z,8972
2016-05-21T04:54:50.802Z,9628
2016-05-21T04:55:50.789Z,10644
2016-05-21T04:56:50.605Z,11216
2016-05-21T04:57:50.716Z,11440
2016-05-21T04:58:50.530Z,10804
2016-05-21T04:59:50.659Z,10600
2016-05-21T05:00:50.615Z,11836
2016-05-21T05:01:50.586Z,15328
2016-05-21T05:02:50.557Z,15872
2016-05-21T05:03:50.716Z,16512
2016-05-21T05:04:50.501Z,16544
2016-05-21T05:05:50.457Z,17728
2016-05-21T05:06:50.443Z,18240
2016-05-21T05:07:50.618Z,19328
2016-05-21T05:08:50.214Z,21248
2016-05-21T05:09:50.343Z,21504
2016-05-21T05:10:50.298Z,23136
2016-05-21T05:11:50.316Z,23456
2016-05-21T05:12:50.226Z,22944
2016-05-21T05:13:50.196Z,23328
2016-05-21T05:14:50.168Z,24544
2016-05-21T05:15:50.156Z,24800
2016-05-21T05:16:50.112Z,25472
2016-05-21T05:17:50.082Z,27488
2016-05-21T05:18:50.039Z,28512
2016-05-21T05:19:50.025Z,31360
2016-05-21T05:20:49.981Z,31808
2016-05-21T05:21:50.187Z,32384
2016-05-21T05:22:49.939Z,34880
2016-05-21T05:23:49.895Z,35744
2016-05-21T05:24:49.976Z,35104
2016-05-21T05:25:49.838Z,35072
2016-05-21T05:26:49.903Z,30048
2016-05-21T05:27:49.797Z,30272
2016-05-21T05:28:49.596Z,34816
2016-05-21T05:29:49.740Z,35168
2016-05-21T05:30:49.696Z,34016
2016-05-21T05:31:49.651Z,31840
2016-05-21T05:32:49.622Z,35168
2016-05-21T05:33:49.438Z,38624
2016-05-21T05:34:49.582Z,33312
2016-05-21T05:35:49.552Z,42464
2016-05-21T05:36:49.525Z,42720
2016-05-21T05:37:50.182Z,43328
2016-05-21T05:38:50.279Z,42944
2016-05-21T05:39:49.813Z,42144
2016-05-21T05:40:50.207Z,42464
2016-05-21T05:41:50.334Z,42240
2016-05-21T05:42:50.165Z,40512
2016-05-21T05:43:50.137Z,41600
2016-05-21T05:44:50.124Z,44544
2016-05-21T05:45:49.923Z,45536
2016-05-21T05:46:49.910Z,34144
2016-05-21T05:47:50.037Z,37440
2016-05-21T05:48:49.212Z,41888
2016-05-21T05:49:49.997Z,42656
2016-05-21T05:50:49.968Z,47168
2016-05-21T05:51:49.939Z,49632
2016-05-21T05:52:49.270Z,49984
2016-05-21T05:53:49.898Z,48448
2016-05-21T05:54:49.869Z,52928
2016-05-21T05:55:49.247Z,57056
2016-05-21T05:56:49.953Z,58944
2016-05-21T05:57:49.800Z,52576
2016-05-21T05:58:49.771Z,52160
2016-05-21T05:59:49.758Z,54976
2016-05-21T06:00:49.729Z,57792
2016-05-21T06:01:49.700Z,57184
2016-05-21T06:02:49.657Z,58048
2016-05-21T06:03:49.644Z,57696
2016-05-21T06:04:49.491Z,57664
2016-05-21T06:05:49.602Z,56928
2016-05-21T06:06:49.605Z,56928
2016-05-21T06:07:49.591Z,57568
2016-05-21T06:08:49.579Z,57600
2016-05-21T06:09:49.519Z,58688
2016-05-21T06:10:49.491Z,61760
2016-05-21T06:11:49.993Z,59648
2016-05-21T06:12:49.480Z,57760
2016-05-21T06:13:49.437Z,59104
2016-05-21T06:14:49.267Z,64768
2016-05-21T06:15:49.442Z,65152
2016-05-21T06:16:48.726Z,63680
2016-05-21T06:17:49.353Z,67616
2016-05-21T06:18:49.325Z,70528
2016-05-21T06:19:49.328Z,64352
2016-05-21T06:20:49.267Z,62688
2016-05-21T06:21:49.270Z,64032
2016-05-21T06:22:49.242Z,68864
2016-05-21T06:23:49.229Z,67680
2016-05-21T06:24:49.419Z,65024
2016-05-21T06:25:49.031Z,67808
2016-05-21T06:26:49.612Z,72448
2016-05-21T06:27:48.989Z,73280
2016-05-21T06:28:48.492Z,73088
2016-05-21T06:29:49.120Z,76480
2016-05-21T06:30:48.450Z,75680
2016-05-21T06:31:49.094Z,72544
2016-05-21T06:32:49.049Z,77376
2016-05-21T06:33:49.036Z,76768
2016-05-21T06:34:49.008Z,76384
2016-05-21T06:35:48.214Z,78368
2016-05-21T06:36:48.983Z,76992
2016-05-21T06:37:48.969Z,74464
2016-05-21T06:38:48.941Z,74112
2016-05-21T06:39:48.928Z,73696
2016-05-21T06:40:48.916Z,74336
2016-05-21T06:41:48.276Z,78048
2016-05-21T06:42:48.858Z,77280
2016-05-21T06:43:48.220Z,78144
2016-05-21T06:44:48.832Z,76064
2016-05-21T06:45:48.834Z,77888
2016-05-21T06:46:48.806Z,79136
2016-05-21T06:47:48.824Z,73408
2016-05-21T06:48:48.827Z,71392
2016-05-21T06:49:48.127Z,75680
2016-05-21T06:50:48.426Z,77440
2016-05-21T06:51:48.710Z,82080
2016-05-21T06:52:48.681Z,79744
2016-05-21T06:53:48.669Z,76096
2016-05-21T06:54:48.672Z,76256
2016-05-21T06:55:48.628Z,73024
2016-05-21T06:56:48.630Z,76096
2016-05-21T06:57:48.445Z,79456
2016-05-21T06:58:48.589Z,79296
2016-05-21T06:59:48.435Z,77920
2016-05-21T07:00:47.922Z,76128
2016-05-21T07:01:48.550Z,75744
2016-05-21T07:02:48.521Z,77248
2016-05-21T07:03:48.508Z,76128
2016-05-21T07:04:48.495Z,75296
2016-05-21T07:05:48.311Z,78176
2016-05-21T07:06:48.485Z,76544
2016-05-21T07:07:48.457Z,73984
2016-05-21T07:08:48.444Z,77568
2016-05-21T07:09:48.415Z,76160
2016-05-21T07:10:48.417Z,74560
2016-05-21T07:11:48.608Z,78848
2016-05-21T07:12:48.376Z,83840
2016-05-21T07:13:48.348Z,85216
2016-05-21T07:14:47.710Z,87776
2016-05-21T07:15:47.696Z,86752
2016-05-21T07:16:47.684Z,85504
2016-05-21T07:17:48.280Z,82368
2016-05-21T07:18:48.283Z,81984
2016-05-21T07:19:47.629Z,80896
2016-05-21T07:20:47.320Z,86080
2016-05-21T07:21:48.229Z,85472
2016-05-21T07:22:48.215Z,85984
2016-05-21T07:23:48.031Z,83072
2016-05-21T07:24:48.173Z,81024
2016-05-21T07:25:48.162Z,87104
2016-05-21T07:26:48.601Z,89984
2016-05-21T07:27:48.150Z,88736
2016-05-21T07:28:47.967Z,86432
2016-05-21T07:29:47.484Z,80288
2016-05-21T07:30:48.097Z,80416
2016-05-21T07:31:48.053Z,85312
2016-05-21T07:32:48.039Z,83488
2016-05-21T07:33:47.902Z,76256
2016-05-21T07:34:47.888Z,79616
2016-05-21T07:35:48.000Z,80448
2016-05-21T07:36:47.363Z,77888
2016-05-21T07:37:47.990Z,77184
2016-05-21T07:38:47.961Z,75904
2016-05-21T07:39:47.949Z,74464
2016-05-21T07:40:48.967Z,75072
2016-05-21T07:41:47.798Z,85952
2016-05-21T07:42:47.910Z,96864
2016-05-21T07:43:47.897Z,84448
2016-05-21T07:44:47.931Z,78944
2016-05-21T07:45:47.840Z,78272
2016-05-21T07:46:47.687Z,80384
2016-05-21T07:47:47.205Z,82432
2016-05-21T07:48:47.160Z,58080
2016-05-21T07:50:01.945Z,68896
2016-05-21T07:50:47.151Z,70304
2016-05-21T07:51:47.762Z,68512
2016-05-21T07:52:47.733Z,66048
2016-05-21T07:53:47.721Z,57632
2016-05-21T07:54:47.083Z,62336
2016-05-21T07:55:47.695Z,63456
2016-05-21T07:56:46.745Z,70880
2016-05-21T07:57:47.872Z,83104
2016-05-21T07:58:47.015Z,84128
2016-05-21T07:59:47.628Z,75072
2016-05-21T08:00:46.975Z,90400
2016-05-21T08:01:47.586Z,92800
2016-05-21T08:02:47.417Z,95712
2016-05-21T08:03:47.560Z,101024
2016-05-21T08:04:47.531Z,104640
2016-05-21T08:05:47.363Z,100448
2016-05-21T08:06:47.491Z,101152
2016-05-21T08:07:47.493Z,98880
2016-05-21T08:08:47.480Z,101824
2016-05-21T08:09:47.561Z,99968
2016-05-21T08:10:46.813Z,94016
2016-05-21T08:11:47.441Z,96224
2016-05-21T08:12:47.413Z,96064
2016-05-21T08:13:47.399Z,96864
2016-05-21T08:14:46.747Z,99424
2016-05-21T08:15:47.357Z,81664
2016-05-21T08:16:47.330Z,109632
2016-05-21T08:17:46.848Z,92096
2016-05-21T08:18:47.319Z,86048
2016-05-21T08:19:46.510Z,108384
2016-05-21T08:20:46.653Z,148640
2016-05-21T08:21:47.265Z,163904
2016-05-21T08:22:47.252Z,140640
2016-05-21T08:23:47.286Z,111040
2016-05-21T08:24:47.085Z,91744
2016-05-21T08:25:47.073Z,72640
2016-05-21T08:26:47.497Z,59104
2016-05-21T08:27:46.562Z,54688
2016-05-21T08:28:47.175Z,55936
2016-05-21T08:29:46.990Z,56384
2016-05-21T08:30:47.148Z,51840
2016-05-21T08:31:47.151Z,52320
2016-05-21T08:32:46.950Z,52544
2016-05-21T08:33:46.938Z,52608
2016-05-21T08:34:47.097Z,57184
2016-05-21T08:35:46.444Z,58912
2016-05-21T08:36:46.290Z,58720
2016-05-21T08:37:46.277Z,60064
2016-05-21T08:38:46.905Z,56064
2016-05-21T08:39:46.391Z,53888
2016-05-21T08:40:47.019Z,59296
2016-05-21T08:41:46.835Z,50176
2016-05-21T08:42:46.977Z,37376
2016-05-21T08:43:46.996Z,35040
2016-05-21T08:44:46.968Z,34208
2016-05-21T08:45:46.954Z,33792
2016-05-21T08:46:46.848Z,33504
2016-05-21T08:47:46.944Z,33440
2016-05-21T08:48:46.900Z,33216
2016-05-21T08:49:46.121Z,32384
2016-05-21T08:50:46.734Z,32512
2016-05-21T08:51:46.892Z,32768
2016-05-21T08:52:46.879Z,32960
2016-05-21T08:53:46.101Z,32768
2016-05-21T08:54:46.838Z,32576
2016-05-21T08:55:46.840Z,32416
2016-05-21T08:56:46.812Z,32640
2016-05-21T08:57:46.190Z,32960
2016-05-21T08:58:46.037Z,33184
2016-05-21T08:59:46.648Z,33376
2016-05-21T09:00:46.776Z,33792
2016-05-21T09:01:46.778Z,36128
2016-05-21T09:02:46.595Z,60384
2016-05-21T09:03:46.753Z,105024
2016-05-21T09:04:46.739Z,125984
2016-05-21T09:05:46.728Z,124768
2016-05-21T09:06:45.948Z,120032
2016-05-21T09:07:46.733Z,118688
2016-05-21T09:08:46.704Z,121344
2016-05-21T09:09:46.114Z,126496
2016-05-21T09:10:46.678Z,127168
2016-05-21T09:11:47.009Z,128480
2016-05-21T09:12:46.043Z,125792
2016-05-21T09:13:46.514Z,127456
2016-05-21T09:14:46.674Z,129504
2016-05-21T09:15:46.629Z,127456
2016-05-21T09:16:46.616Z,126624
2016-05-21T09:17:45.907Z,129152
2016-05-21T09:18:46.649Z,126080
2016-05-21T09:19:46.657Z,121216
2016-05-21T09:20:45.884Z,122816
2016-05-21T09:21:46.580Z,128480
2016-05-21T09:22:46.058Z,127008
2016-05-21T09:23:46.725Z,124064
2016-05-21T09:24:46.689Z,117728
2016-05-21T09:25:46.715Z,110464
2016-05-21T09:26:46.553Z,109056
2016-05-21T09:27:46.058Z,113056
2016-05-21T09:28:46.672Z,117248
2016-05-21T09:29:46.662Z,121504
2016-05-21T09:30:46.652Z,122240
2016-05-21T09:31:46.658Z,122080
2016-05-21T09:32:45.865Z,127168
2016-05-21T09:33:46.634Z,123264
2016-05-21T09:34:46.639Z,120896
2016-05-21T09:35:46.907Z,127328
2016-05-21T09:36:46.614Z,128640
2016-05-21T09:37:46.633Z,128128
2016-05-21T09:38:46.621Z,131744
2016-05-21T09:39:46.670Z,132608
2016-05-21T09:40:46.611Z,131552
2016-05-21T09:41:46.427Z,129440
2016-05-21T09:42:46.430Z,129696
2016-05-21T09:43:46.401Z,123904
2016-05-21T09:44:46.544Z,126176
2016-05-21T09:45:46.390Z,117248
2016-05-21T09:46:45.893Z,115392
2016-05-21T09:47:46.537Z,131392
2016-05-21T09:48:46.524Z,125696
2016-05-21T09:49:46.510Z,116512
2016-05-21T09:50:46.514Z,106944
2016-05-21T09:51:46.484Z,112736
2016-05-21T09:52:45.706Z,122240
2016-05-21T09:53:46.521Z,123104
2016-05-21T09:54:46.477Z,124032
2016-05-21T09:55:46.495Z,123616
2016-05-21T09:56:46.326Z,115808
2016-05-21T09:57:46.141Z,114080
2016-05-21T09:58:46.285Z,118464
2016-05-21T09:59:46.272Z,117024
2016-05-21T10:00:46.415Z,121504
2016-05-21T10:01:46.246Z,125664
2016-05-21T10:02:46.249Z,122880
2016-05-21T10:03:45.736Z,116256
2016-05-21T10:04:45.738Z,114656
2016-05-21T10:05:46.351Z,122016
2016-05-21T10:06:46.354Z,118656
2016-05-21T10:07:46.356Z,114176
2016-05-21T10:08:45.687Z,115584
2016-05-21T10:09:46.330Z,117504
2016-05-21T10:10:45.660Z,124544
2016-05-21T10:11:45.523Z,125600
2016-05-21T10:12:45.651Z,123968
2016-05-21T10:13:46.278Z,122080
2016-05-21T10:14:46.312Z,117952
2016-05-21T10:15:46.252Z,109952
2016-05-21T10:16:46.240Z,114624
2016-05-21T10:17:46.226Z,116768
2016-05-21T10:18:46.213Z,115424
2016-05-21T10:19:46.059Z,120928
2016-05-21T10:20:46.188Z,122080
2016-05-21T10:21:46.175Z,118144
2016-05-21T10:22:46.178Z,120352
2016-05-21T10:23:46.165Z,119840
2016-05-21T10:24:46.011Z,114688
2016-05-21T10:25:45.997Z,117856
2016-05-21T10:26:46.078Z,127456
2016-05-21T10:27:46.128Z,135680
2016-05-21T10:28:46.100Z,140000
2016-05-21T10:29:46.102Z,138784
2016-05-21T10:30:46.089Z,136352
2016-05-21T10:31:46.061Z,138144
2016-05-21T10:32:46.064Z,145056
2016-05-21T10:33:46.051Z,147584
2016-05-21T10:34:46.054Z,143104
2016-05-21T10:35:46.025Z,151744
2016-05-21T10:36:46.028Z,148192
2016-05-21T10:37:46.030Z,146592
2016-05-21T10:38:46.018Z,136512
2016-05-21T10:39:45.208Z,111136
2016-05-21T10:40:45.976Z,67776
2016-05-21T10:41:45.993Z,51840
2016-05-21T10:42:45.996Z,44000
2016-05-21T10:43:45.968Z,40800
2016-05-21T10:44:45.956Z,40160
2016-05-21T10:45:46.161Z,28640
2016-05-21T10:46:45.320Z,18304
2016-05-21T10:47:45.932Z,17344
2016-05-21T10:48:45.513Z,17056
2016-05-21T10:49:46.140Z,16644
2016-05-21T10:50:45.753Z,16424
2016-05-21T10:51:45.881Z,16232
2016-05-21T10:52:45.899Z,16088
2016-05-21T10:53:45.245Z,16060
2016-05-21T10:54:45.858Z,16016
2016-05-21T10:55:46.048Z,16076
2016-05-21T10:56:45.660Z,16268
2016-05-21T10:57:45.833Z,16860
2016-05-21T10:58:45.806Z,21536
2016-05-21T10:59:45.808Z,54496
2016-05-21T11:00:45.795Z,82432
2016-05-21T11:01:45.782Z,99904
2016-05-21T11:02:45.598Z,109024
2016-05-21T11:03:45.741Z,100160
2016-05-21T11:04:45.727Z,93728
2016-05-21T11:05:45.090Z,94688
2016-05-21T11:06:45.702Z,100608
2016-05-21T11:07:45.924Z,97952
2016-05-21T11:08:45.676Z,100640
2016-05-21T11:09:45.679Z,101376
2016-05-21T11:10:45.010Z,102944
2016-05-21T11:11:45.747Z,77920
2016-05-21T11:12:45.484Z,29472
2016-05-21T11:13:44.971Z,12460
2016-05-21T11:14:45.599Z,11784
2016-05-21T11:15:45.585Z,11404
2016-05-21T11:16:45.557Z,11036
2016-05-21T11:17:45.763Z,10588
2016-05-21T11:18:45.515Z,10068
2016-05-21T11:19:45.362Z,9560
2016-05-21T11:20:45.490Z,9032
2016-05-21T11:21:45.461Z,8396
2016-05-21T11:22:44.839Z,7828
2016-05-21T11:23:45.451Z,7344
2016-05-21T11:24:45.438Z,7188
2016-05-21T11:25:44.769Z,7604
2016-05-21T11:26:45.411Z,7920
2016-05-21T11:27:45.368Z,7952
2016-05-21T11:28:47.433Z,7840
2016-05-21T11:29:45.342Z,7688
2016-05-21T11:30:45.329Z,7392
2016-05-21T11:31:45.300Z,7184
2016-05-21T11:32:45.272Z,7016
2016-05-21T11:33:45.244Z,6884
2016-05-21T11:34:45.230Z,6764
2016-05-21T11:35:44.421Z,6780
2016-05-21T11:36:44.377Z,6824
2016-05-21T11:37:44.364Z,6848
2016-05-21T11:38:44.569Z,6840
2016-05-21T11:39:44.322Z,6812
2016-05-21T11:40:44.324Z,6812
2016-05-21T11:41:44.124Z,6776
2016-05-21T11:42:44.267Z,6700
2016-05-21T11:43:44.083Z,6604
2016-05-21T11:44:44.226Z,6512
2016-05-21T11:45:44.182Z,6476
2016-05-21T11:46:44.013Z,6400
2016-05-21T11:47:44.594Z,6364
2016-05-21T11:48:44.112Z,6312
2016-05-21T11:49:44.099Z,6276
2016-05-21T11:50:43.929Z,6276
2016-05-21T11:51:43.901Z,6336
2016-05-21T11:52:44.014Z,6400
2016-05-21T11:53:43.859Z,6404
2016-05-21T11:54:43.675Z,6368
2016-05-21T11:55:43.943Z,6308
2016-05-21T11:56:43.806Z,6236
2016-05-21T11:57:43.917Z,6180
2016-05-21T11:58:43.920Z,6144
2016-05-21T11:59:43.563Z,6156
2016-05-21T12:00:43.831Z,6152
2016-05-21T12:01:43.818Z,6144
2016-05-21T12:02:43.791Z,6160
2016-05-21T12:03:43.606Z,6244
2016-05-21T12:04:43.764Z,6272
2016-05-21T12:05:43.719Z,6344
2016-05-21T12:06:43.535Z,6388
2016-05-21T12:07:43.679Z,6456
2016-05-21T12:08:43.650Z,6500
2016-05-21T12:09:43.622Z,6532
2016-05-21T12:10:43.577Z,6572
2016-05-21T12:11:43.846Z,6608
2016-05-21T12:12:43.379Z,6684
2016-05-21T12:13:43.507Z,6720
2016-05-21T12:14:43.760Z,6720
2016-05-21T12:15:43.466Z,6732
2016-05-21T12:16:43.437Z,6760
2016-05-21T12:17:43.409Z,6760
2016-05-21T12:18:43.380Z,6752
2016-05-21T12:19:43.367Z,6712
2016-05-21T12:20:43.573Z,6684
2016-05-21T12:21:43.701Z,6696
2016-05-21T12:22:43.140Z,6740
2016-05-21T12:23:43.268Z,6836
2016-05-21T12:24:43.240Z,6916
2016-05-21T12:25:43.211Z,6924
2016-05-21T12:26:43.558Z,6948
2016-05-21T12:27:43.404Z,6936
2016-05-21T12:28:43.203Z,6940
2016-05-21T12:29:42.816Z,6896
2016-05-21T12:30:43.084Z,6812
2016-05-21T12:31:43.306Z,6728
2016-05-21T12:32:43.043Z,6660
2016-05-21T12:33:43.045Z,6604
2016-05-21T12:34:43.017Z,6556
2016-05-21T12:35:42.972Z,6500
2016-05-21T12:36:42.991Z,6460
2016-05-21T12:37:42.962Z,6428
2016-05-21T12:38:43.122Z,6400
2016-05-21T12:39:42.874Z,6404
2016-05-21T12:40:42.860Z,6384
2016-05-21T12:41:42.833Z,6304
2016-05-21T12:42:42.648Z,6292
2016-05-21T12:43:42.776Z,6264
2016-05-21T12:44:42.591Z,6252
2016-05-21T12:45:43.156Z,6172
2016-05-21T12:46:42.705Z,6164
2016-05-21T12:47:42.692Z,6156
2016-05-21T12:48:42.648Z,6112
2016-05-21T12:49:42.870Z,6068
2016-05-21T12:50:42.451Z,6016
2016-05-21T12:51:42.641Z,5940
2016-05-21T12:52:42.393Z,5884
2016-05-21T12:53:42.553Z,5848
2016-05-21T12:54:42.539Z,5848
2016-05-21T12:55:42.558Z,5852
2016-05-21T12:56:42.529Z,5860
2016-05-21T12:57:42.453Z,5868
2016-05-21T12:58:42.409Z,5832
2016-05-21T12:59:42.444Z,5756
2016-05-21T13:00:42.212Z,5684
2016-05-21T13:01:42.355Z,5620
2016-05-21T13:02:42.155Z,5556
2016-05-21T13:03:42.283Z,5492
2016-05-21T13:04:42.113Z,5440
2016-05-21T13:05:42.241Z,5368
2016-05-21T13:06:42.055Z,5300
2016-05-21T13:07:42.183Z,5240
2016-05-21T13:08:42.171Z,5160
2016-05-21T13:09:42.189Z,5124
2016-05-21T13:10:41.958Z,5044
2016-05-21T13:11:42.538Z,5008
2016-05-21T13:12:42.072Z,4976
2016-05-21T13:13:41.887Z,4968
2016-05-21T13:14:42.016Z,4968
2016-05-21T13:15:41.829Z,4952
2016-05-21T13:16:42.207Z,4976
2016-05-21T13:17:42.163Z,4960
2016-05-21T13:18:56.041Z,4896
2016-05-21T13:19:41.904Z,4896
2016-05-21T13:20:41.875Z,4948
2016-05-21T13:21:55.971Z,4992
2016-05-21T13:22:41.834Z,5036